Accueil
METAR-TAF:

METAR-TAF

Aéroports :

Aéroport international de Calgary

Calgary, Alberta, Canada

latitude: 51-07N, longitude: 114-01W, altitude: 1077 m

Observation

Le bulletin a été fait il y a 1 heure et 8 minutes, à 04:00 UTC
Vent 6 kt de sud-ouest
Température -5°C
Humidité 86%
Pression 1016 hPa
Visibilité: 24.1 km
Quelques nuages à une hauteur de 23000 ft

METAR: CYYC 210400Z 22006KT 15SM FEW230 M05/M07 A3000 RMK CI2 SLP223

Heure: 22:08 (05:08 UTC)

Prévision

Le bulletin a été fait il y a 2 heures et 30 minutes, à 02:38 UTC
Prévision valable du 21 à 03 UTC au 21 à 24 UTC
Vent 6 kt de sud
Visibilité: 10 km
Ciel clair
Evoluant progressivement
du 21 à 07 UTC au 21 à 09 UTC
Vent 5 kt de ouest

TAF: CYYC 210238Z 2103/2124 18006KT P6SM SKC BECMG 2107/2109 27005KT RMK NXT FCST BY 210600Z

Observations et prévisions météorologiques de plus de 4000 aéroports (messages METAR et TAF).

Les stations disponibles sont représentées par des disques jaunes et rouges sur la carte.

Passer la souris dessus pour voir le nom de la station.

Cliquer dessus pour voir les observations et prévisions météorologiques.

Pour changer de carte: cliquez sur les boutons verts avec une croix noire pour zoomer, sur le bouton vert avec un tiret pour effectuer un zoom arrière, ou sur les flèches vertes pour les cartes adjacentes.


METAR-TAF: